sensor_id;sensor_type;location;lat;lon;timestamp;P1;durP1;ratioP1;P2;durP2;ratioP2
59766;SDS011;46248;58.364;25.582;2023-09-07T00:02:21;0.90;;;0.68;;
59766;SDS011;46248;58.364;25.582;2023-09-07T00:05:58;0.50;;;0.47;;
59766;SDS011;46248;58.364;25.582;2023-09-07T00:09:20;1.90;;;0.55;;
59766;SDS011;46248;58.364;25.582;2023-09-07T00:12:43;1.80;;;0.40;;
59766;SDS011;46248;58.364;25.582;2023-09-07T00:16:07;1.95;;;0.40;;
59766;SDS011;46248;58.364;25.582;2023-09-07T00:19:29;1.75;;;0.30;;
59766;SDS011;46248;58.364;25.582;2023-09-07T00:22:54;2.50;;;1.13;;
59766;SDS011;46248;58.364;25.582;2023-09-07T00:26:15;3.45;;;0.90;;
59766;SDS011;46248;58.364;25.582;2023-09-07T00:29:38;3.58;;;1.33;;
59766;SDS011;46248;58.364;25.582;2023-09-07T00:33:01;3.13;;;1.83;;
59766;SDS011;46248;58.364;25.582;2023-09-07T00:36:23;3.67;;;1.48;;
59766;SDS011;46248;58.364;25.582;2023-09-07T00:39:45;4.32;;;1.65;;
59766;SDS011;46248;58.364;25.582;2023-09-07T00:43:07;3.38;;;1.30;;
59766;SDS011;46248;58.364;25.582;2023-09-07T00:46:29;2.28;;;1.23;;
59766;SDS011;46248;58.364;25.582;2023-09-07T00:49:52;2.15;;;0.90;;
59766;SDS011;46248;58.364;25.582;2023-09-07T00:53:15;2.05;;;0.93;;
59766;SDS011;46248;58.364;25.582;2023-09-07T00:56:37;1.00;;;0.80;;
59766;SDS011;46248;58.364;25.582;2023-09-07T00:59:59;1.65;;;1.20;;
59766;SDS011;46248;58.364;25.582;2023-09-07T01:03:21;2.17;;;0.93;;
59766;SDS011;46248;58.364;25.582;2023-09-07T01:06:47;1.42;;;0.90;;
59766;SDS011;46248;58.364;25.582;2023-09-07T01:10:13;2.20;;;1.00;;
59766;SDS011;46248;58.364;25.582;2023-09-07T01:13:35;2.42;;;0.60;;
59766;SDS011;46248;58.364;25.582;2023-09-07T01:16:57;4.00;;;1.02;;
59766;SDS011;46248;58.364;25.582;2023-09-07T01:20:20;0.80;;;0.47;;
59766;SDS011;46248;58.364;25.582;2023-09-07T01:23:44;1.60;;;0.65;;
59766;SDS011;46248;58.364;25.582;2023-09-07T01:27:07;1.75;;;0.70;;
59766;SDS011;46248;58.364;25.582;2023-09-07T01:30:29;1.83;;;0.60;;
59766;SDS011;46248;58.364;25.582;2023-09-07T01:33:52;1.13;;;0.50;;
59766;SDS011;46248;58.364;25.582;2023-09-07T01:37:14;1.38;;;0.70;;
59766;SDS011;46248;58.364;25.582;2023-09-07T01:40:37;0.70;;;0.55;;
59766;SDS011;46248;58.364;25.582;2023-09-07T01:43:59;0.57;;;0.57;;
59766;SDS011;46248;58.364;25.582;2023-09-07T01:47:21;2.33;;;0.80;;
59766;SDS011;46248;58.364;25.582;2023-09-07T01:50:43;4.53;;;0.80;;
59766;SDS011;46248;58.364;25.582;2023-09-07T01:54:04;1.40;;;0.50;;
59766;SDS011;46248;58.364;25.582;2023-09-07T01:57:28;2.30;;;0.93;;
59766;SDS011;46248;58.364;25.582;2023-09-07T02:00:49;1.50;;;0.88;;
59766;SDS011;46248;58.364;25.582;2023-09-07T02:04:11;3.20;;;0.90;;
59766;SDS011;46248;58.364;25.582;2023-09-07T02:07:33;1.83;;;0.73;;
59766;SDS011;46248;58.364;25.582;2023-09-07T02:10:55;3.03;;;1.08;;
59766;SDS011;46248;58.364;25.582;2023-09-07T02:14:18;2.95;;;0.80;;
59766;SDS011;46248;58.364;25.582;2023-09-07T02:17:40;2.00;;;0.80;;
59766;SDS011;46248;58.364;25.582;2023-09-07T02:21:05;1.85;;;0.98;;
59766;SDS011;46248;58.364;25.582;2023-09-07T02:24:27;2.50;;;0.52;;
59766;SDS011;46248;58.364;25.582;2023-09-07T02:27:48;0.43;;;0.43;;
59766;SDS011;46248;58.364;25.582;2023-09-07T02:31:11;0.70;;;0.60;;
59766;SDS011;46248;58.364;25.582;2023-09-07T02:34:33;1.00;;;0.70;;
59766;SDS011;46248;58.364;25.582;2023-09-07T02:37:56;0.60;;;0.60;;
59766;SDS011;46248;58.364;25.582;2023-09-07T02:41:17;1.98;;;0.80;;
59766;SDS011;46248;58.364;25.582;2023-09-07T02:44:39;4.28;;;1.20;;
59766;SDS011;46248;58.364;25.582;2023-09-07T02:48:02;2.65;;;1.35;;
59766;SDS011;46248;58.364;25.582;2023-09-07T02:51:25;3.50;;;1.50;;
59766;SDS011;46248;58.364;25.582;2023-09-07T02:54:47;3.35;;;1.30;;
59766;SDS011;46248;58.364;25.582;2023-09-07T02:58:08;2.10;;;1.13;;
59766;SDS011;46248;58.364;25.582;2023-09-07T03:01:30;2.55;;;1.00;;
59766;SDS011;46248;58.364;25.582;2023-09-07T03:04:55;1.98;;;0.80;;
59766;SDS011;46248;58.364;25.582;2023-09-07T03:08:19;1.25;;;0.75;;
59766;SDS011;46248;58.364;25.582;2023-09-07T03:11:40;1.27;;;0.68;;
59766;SDS011;46248;58.364;25.582;2023-09-07T03:15:02;0.47;;;0.40;;
59766;SDS011;46248;58.364;25.582;2023-09-07T03:18:24;1.48;;;0.40;;
59766;SDS011;46248;58.364;25.582;2023-09-07T03:21:48;0.43;;;0.43;;
59766;SDS011;46248;58.364;25.582;2023-09-07T03:25:10;0.30;;;0.30;;
59766;SDS011;46248;58.364;25.582;2023-09-07T03:28:32;0.40;;;0.40;;
59766;SDS011;46248;58.364;25.582;2023-09-07T03:31:54;0.40;;;0.40;;
59766;SDS011;46248;58.364;25.582;2023-09-07T03:35:16;1.08;;;0.40;;
59766;SDS011;46248;58.364;25.582;2023-09-07T03:38:39;0.38;;;0.38;;
59766;SDS011;46248;58.364;25.582;2023-09-07T03:42:00;0.30;;;0.30;;
59766;SDS011;46248;58.364;25.582;2023-09-07T03:45:22;0.30;;;0.30;;
59766;SDS011;46248;58.364;25.582;2023-09-07T03:48:44;0.50;;;0.50;;
59766;SDS011;46248;58.364;25.582;2023-09-07T03:52:05;0.15;;;0.15;;
59766;SDS011;46248;58.364;25.582;2023-09-07T03:55:29;0.20;;;0.20;;
59766;SDS011;46248;58.364;25.582;2023-09-07T03:58:50;0.57;;;0.43;;
59766;SDS011;46248;58.364;25.582;2023-09-07T04:02:12;0.50;;;0.50;;
59766;SDS011;46248;58.364;25.582;2023-09-07T04:05:36;0.40;;;0.40;;
59766;SDS011;46248;58.364;25.582;2023-09-07T04:08:58;0.60;;;0.60;;
59766;SDS011;46248;58.364;25.582;2023-09-07T04:12:21;0.73;;;0.60;;
59766;SDS011;46248;58.364;25.582;2023-09-07T04:15:44;0.63;;;0.40;;
59766;SDS011;46248;58.364;25.582;2023-09-07T04:19:06;0.77;;;0.70;;
59766;SDS011;46248;58.364;25.582;2023-09-07T04:22:29;1.33;;;0.52;;
59766;SDS011;46248;58.364;25.582;2023-09-07T04:25:51;0.40;;;0.40;;
59766;SDS011;46248;58.364;25.582;2023-09-07T04:29:14;2.08;;;0.47;;
59766;SDS011;46248;58.364;25.582;2023-09-07T04:32:36;2.53;;;0.70;;
59766;SDS011;46248;58.364;25.582;2023-09-07T04:36:05;0.82;;;0.40;;
59766;SDS011;46248;58.364;25.582;2023-09-07T04:39:28;0.50;;;0.35;;
59766;SDS011;46248;58.364;25.582;2023-09-07T04:42:50;1.90;;;0.55;;
59766;SDS011;46248;58.364;25.582;2023-09-07T04:46:13;0.68;;;0.38;;
59766;SDS011;46248;58.364;25.582;2023-09-07T04:49:37;0.20;;;0.20;;
59766;SDS011;46248;58.364;25.582;2023-09-07T04:52:59;0.65;;;0.47;;
59766;SDS011;46248;58.364;25.582;2023-09-07T04:56:21;0.73;;;0.40;;
59766;SDS011;46248;58.364;25.582;2023-09-07T04:59:43;0.47;;;0.30;;
59766;SDS011;46248;58.364;25.582;2023-09-07T05:03:06;0.50;;;0.50;;
59766;SDS011;46248;58.364;25.582;2023-09-07T05:06:28;0.88;;;0.65;;
59766;SDS011;46248;58.364;25.582;2023-09-07T05:09:50;0.30;;;0.30;;
59766;SDS011;46248;58.364;25.582;2023-09-07T05:13:12;0.43;;;0.40;;
59766;SDS011;46248;58.364;25.582;2023-09-07T05:16:34;1.00;;;1.00;;
59766;SDS011;46248;58.364;25.582;2023-09-07T05:19:57;3.42;;;0.70;;
59766;SDS011;46248;58.364;25.582;2023-09-07T05:23:19;1.77;;;1.42;;
59766;SDS011;46248;58.364;25.582;2023-09-07T05:26:41;3.53;;;2.00;;
59766;SDS011;46248;58.364;25.582;2023-09-07T05:30:04;3.58;;;1.42;;
59766;SDS011;46248;58.364;25.582;2023-09-07T05:33:27;4.70;;;2.10;;
59766;SDS011;46248;58.364;25.582;2023-09-07T05:36:50;2.80;;;2.50;;
59766;SDS011;46248;58.364;25.582;2023-09-07T05:40:12;1.60;;;1.50;;
59766;SDS011;46248;58.364;25.582;2023-09-07T05:43:34;4.82;;;2.20;;
59766;SDS011;46248;58.364;25.582;2023-09-07T05:46:56;1.88;;;1.77;;
59766;SDS011;46248;58.364;25.582;2023-09-07T05:50:19;2.08;;;1.38;;
59766;SDS011;46248;58.364;25.582;2023-09-07T05:53:42;3.10;;;0.77;;
59766;SDS011;46248;58.364;25.582;2023-09-07T05:57:04;3.00;;;1.13;;
59766;SDS011;46248;58.364;25.582;2023-09-07T06:00:25;2.95;;;0.75;;
59766;SDS011;46248;58.364;25.582;2023-09-07T06:03:47;2.28;;;1.50;;
59766;SDS011;46248;58.364;25.582;2023-09-07T06:07:09;2.92;;;1.30;;
59766;SDS011;46248;58.364;25.582;2023-09-07T06:10:32;2.03;;;1.00;;
59766;SDS011;46248;58.364;25.582;2023-09-07T06:13:54;3.25;;;1.00;;
59766;SDS011;46248;58.364;25.582;2023-09-07T06:17:15;3.05;;;1.67;;
59766;SDS011;46248;58.364;25.582;2023-09-07T06:20:37;0.60;;;0.60;;
59766;SDS011;46248;58.364;25.582;2023-09-07T06:24:00;1.50;;;0.90;;
59766;SDS011;46248;58.364;25.582;2023-09-07T06:27:23;1.27;;;0.68;;
59766;SDS011;46248;58.364;25.582;2023-09-07T06:30:44;0.60;;;0.60;;
59766;SDS011;46248;58.364;25.582;2023-09-07T06:34:06;3.35;;;1.50;;
59766;SDS011;46248;58.364;25.582;2023-09-07T06:37:28;2.83;;;0.98;;
59766;SDS011;46248;58.364;25.582;2023-09-07T06:40:50;2.38;;;0.90;;
59766;SDS011;46248;58.364;25.582;2023-09-07T06:44:13;1.27;;;0.80;;
59766;SDS011;46248;58.364;25.582;2023-09-07T06:47:37;2.00;;;0.80;;
59766;SDS011;46248;58.364;25.582;2023-09-07T06:51:01;1.27;;;0.65;;
59766;SDS011;46248;58.364;25.582;2023-09-07T06:54:24;2.45;;;0.60;;
59766;SDS011;46248;58.364;25.582;2023-09-07T06:57:46;1.75;;;0.80;;
59766;SDS011;46248;58.364;25.582;2023-09-07T07:01:09;0.52;;;0.50;;
59766;SDS011;46248;58.364;25.582;2023-09-07T07:04:31;1.63;;;0.90;;
59766;SDS011;46248;58.364;25.582;2023-09-07T07:07:53;2.63;;;0.90;;
59766;SDS011;46248;58.364;25.582;2023-09-07T07:11:15;3.60;;;0.73;;
59766;SDS011;46248;58.364;25.582;2023-09-07T07:14:37;3.42;;;0.70;;
59766;SDS011;46248;58.364;25.582;2023-09-07T07:18:00;2.70;;;0.95;;
59766;SDS011;46248;58.364;25.582;2023-09-07T07:24:49;2.88;;;0.70;;
59766;SDS011;46248;58.364;25.582;2023-09-07T07:28:11;0.45;;;0.40;;
59766;SDS011;46248;58.364;25.582;2023-09-07T07:31:32;1.35;;;0.73;;
59766;SDS011;46248;58.364;25.582;2023-09-07T07:34:56;3.85;;;0.88;;
59766;SDS011;46248;58.364;25.582;2023-09-07T07:38:18;4.00;;;0.60;;
59766;SDS011;46248;58.364;25.582;2023-09-07T07:41:40;2.13;;;0.80;;
59766;SDS011;46248;58.364;25.582;2023-09-07T07:45:03;4.90;;;0.95;;
59766;SDS011;46248;58.364;25.582;2023-09-07T07:48:25;2.00;;;0.50;;
59766;SDS011;46248;58.364;25.582;2023-09-07T07:51:50;2.90;;;0.68;;
59766;SDS011;46248;58.364;25.582;2023-09-07T07:55:15;1.85;;;0.95;;
59766;SDS011;46248;58.364;25.582;2023-09-07T07:58:37;2.70;;;0.60;;
59766;SDS011;46248;58.364;25.582;2023-09-07T08:01:59;1.88;;;0.55;;
59766;SDS011;46248;58.364;25.582;2023-09-07T08:05:21;2.75;;;0.70;;
59766;SDS011;46248;58.364;25.582;2023-09-07T08:08:44;4.45;;;0.63;;
59766;SDS011;46248;58.364;25.582;2023-09-07T08:12:05;4.55;;;0.65;;
59766;SDS011;46248;58.364;25.582;2023-09-07T08:15:27;5.88;;;1.10;;
59766;SDS011;46248;58.364;25.582;2023-09-07T08:18:49;4.20;;;1.20;;
59766;SDS011;46248;58.364;25.582;2023-09-07T08:22:11;6.20;;;1.85;;
59766;SDS011;46248;58.364;25.582;2023-09-07T08:25:34;9.45;;;3.20;;
59766;SDS011;46248;58.364;25.582;2023-09-07T08:28:56;12.90;;;4.50;;
59766;SDS011;46248;58.364;25.582;2023-09-07T08:32:18;4.55;;;1.77;;
59766;SDS011;46248;58.364;25.582;2023-09-07T08:35:41;6.10;;;1.67;;
59766;SDS011;46248;58.364;25.582;2023-09-07T08:39:04;4.22;;;1.50;;
59766;SDS011;46248;58.364;25.582;2023-09-07T08:42:31;4.22;;;1.38;;
59766;SDS011;46248;58.364;25.582;2023-09-07T08:45:55;3.08;;;1.15;;
59766;SDS011;46248;58.364;25.582;2023-09-07T08:49:26;4.38;;;1.00;;
59766;SDS011;46248;58.364;25.582;2023-09-07T08:52:48;3.15;;;0.70;;
59766;SDS011;46248;58.364;25.582;2023-09-07T08:56:13;1.38;;;0.70;;
59766;SDS011;46248;58.364;25.582;2023-09-07T08:59:37;3.50;;;1.20;;
59766;SDS011;46248;58.364;25.582;2023-09-07T09:02:58;3.90;;;1.40;;
59766;SDS011;46248;58.364;25.582;2023-09-07T09:06:21;5.95;;;1.00;;
59766;SDS011;46248;58.364;25.582;2023-09-07T09:09:43;3.85;;;0.73;;
59766;SDS011;46248;58.364;25.582;2023-09-07T09:13:04;1.63;;;0.80;;
59766;SDS011;46248;58.364;25.582;2023-09-07T09:16:28;0.68;;;0.50;;
59766;SDS011;46248;58.364;25.582;2023-09-07T09:19:49;2.33;;;0.77;;
59766;SDS011;46248;58.364;25.582;2023-09-07T09:23:11;1.75;;;0.57;;
59766;SDS011;46248;58.364;25.582;2023-09-07T09:26:36;3.08;;;0.90;;
59766;SDS011;46248;58.364;25.582;2023-09-07T09:29:58;2.45;;;0.77;;
59766;SDS011;46248;58.364;25.582;2023-09-07T09:33:21;3.40;;;0.60;;
59766;SDS011;46248;58.364;25.582;2023-09-07T09:36:44;1.92;;;0.70;;
59766;SDS011;46248;58.364;25.582;2023-09-07T09:40:06;2.53;;;0.90;;
59766;SDS011;46248;58.364;25.582;2023-09-07T09:43:30;3.53;;;0.80;;
59766;SDS011;46248;58.364;25.582;2023-09-07T09:46:52;4.05;;;0.70;;
59766;SDS011;46248;58.364;25.582;2023-09-07T09:50:17;1.00;;;0.57;;
59766;SDS011;46248;58.364;25.582;2023-09-07T09:53:40;1.88;;;0.50;;
59766;SDS011;46248;58.364;25.582;2023-09-07T09:57:03;2.88;;;0.60;;
59766;SDS011;46248;58.364;25.582;2023-09-07T10:00:25;2.63;;;0.70;;
59766;SDS011;46248;58.364;25.582;2023-09-07T10:03:49;2.50;;;0.68;;
59766;SDS011;46248;58.364;25.582;2023-09-07T10:07:13;4.38;;;0.68;;
59766;SDS011;46248;58.364;25.582;2023-09-07T10:10:36;3.13;;;0.90;;
59766;SDS011;46248;58.364;25.582;2023-09-07T10:13:59;4.30;;;0.88;;
59766;SDS011;46248;58.364;25.582;2023-09-07T10:17:23;2.90;;;0.85;;
59766;SDS011;46248;58.364;25.582;2023-09-07T10:20:49;5.55;;;0.95;;
59766;SDS011;46248;58.364;25.582;2023-09-07T10:24:24;1.77;;;0.95;;
59766;SDS011;46248;58.364;25.582;2023-09-07T10:27:47;2.50;;;0.50;;
59766;SDS011;46248;58.364;25.582;2023-09-07T10:31:12;1.55;;;0.80;;
59766;SDS011;46248;58.364;25.582;2023-09-07T10:34:35;1.77;;;0.50;;
59766;SDS011;46248;58.364;25.582;2023-09-07T10:37:59;1.60;;;0.80;;
59766;SDS011;46248;58.364;25.582;2023-09-07T10:41:23;2.47;;;0.60;;
59766;SDS011;46248;58.364;25.582;2023-09-07T10:44:45;2.15;;;0.63;;
59766;SDS011;46248;58.364;25.582;2023-09-07T10:48:07;3.10;;;1.13;;
59766;SDS011;46248;58.364;25.582;2023-09-07T10:51:29;1.73;;;0.50;;
59766;SDS011;46248;58.364;25.582;2023-09-07T10:54:55;2.35;;;1.02;;
59766;SDS011;46248;58.364;25.582;2023-09-07T10:58:24;2.33;;;0.63;;
59766;SDS011;46248;58.364;25.582;2023-09-07T11:01:49;4.00;;;0.70;;
59766;SDS011;46248;58.364;25.582;2023-09-07T11:05:11;3.33;;;0.80;;
59766;SDS011;46248;58.364;25.582;2023-09-07T11:08:33;4.55;;;0.90;;
59766;SDS011;46248;58.364;25.582;2023-09-07T11:11:55;4.10;;;1.52;;
59766;SDS011;46248;58.364;25.582;2023-09-07T11:15:18;2.13;;;0.77;;
59766;SDS011;46248;58.364;25.582;2023-09-07T11:18:41;2.83;;;1.00;;
59766;SDS011;46248;58.364;25.582;2023-09-07T11:22:03;4.47;;;0.82;;
59766;SDS011;46248;58.364;25.582;2023-09-07T11:25:25;2.90;;;1.20;;
59766;SDS011;46248;58.364;25.582;2023-09-07T11:28:47;3.78;;;1.63;;
59766;SDS011;46248;58.364;25.582;2023-09-07T11:32:10;5.50;;;0.70;;
59766;SDS011;46248;58.364;25.582;2023-09-07T11:35:33;3.22;;;0.82;;
59766;SDS011;46248;58.364;25.582;2023-09-07T11:38:55;6.43;;;2.05;;
59766;SDS011;46248;58.364;25.582;2023-09-07T11:42:17;1.40;;;0.75;;
59766;SDS011;46248;58.364;25.582;2023-09-07T11:45:39;3.08;;;0.70;;
59766;SDS011;46248;58.364;25.582;2023-09-07T11:49:04;0.70;;;0.47;;
59766;SDS011;46248;58.364;25.582;2023-09-07T11:57:13;1.63;;;0.60;;
59766;SDS011;46248;58.364;25.582;2023-09-07T12:00:36;2.88;;;0.65;;
59766;SDS011;46248;58.364;25.582;2023-09-07T12:03:58;2.33;;;1.02;;
59766;SDS011;46248;58.364;25.582;2023-09-07T12:07:21;1.75;;;0.52;;
59766;SDS011;46248;58.364;25.582;2023-09-07T12:10:43;1.95;;;0.40;;
59766;SDS011;46248;58.364;25.582;2023-09-07T12:14:05;1.63;;;0.70;;
59766;SDS011;46248;58.364;25.582;2023-09-07T12:17:27;2.53;;;1.05;;
59766;SDS011;46248;58.364;25.582;2023-09-07T12:20:50;2.20;;;0.50;;
59766;SDS011;46248;58.364;25.582;2023-09-07T12:24:13;2.50;;;0.60;;
59766;SDS011;46248;58.364;25.582;2023-09-07T12:27:35;5.50;;;1.00;;
59766;SDS011;46248;58.364;25.582;2023-09-07T12:31:12;1.33;;;0.60;;
59766;SDS011;46248;58.364;25.582;2023-09-07T12:34:35;1.13;;;0.50;;
59766;SDS011;46248;58.364;25.582;2023-09-07T12:37:57;2.92;;;0.70;;
59766;SDS011;46248;58.364;25.582;2023-09-07T12:41:20;2.22;;;0.80;;
59766;SDS011;46248;58.364;25.582;2023-09-07T12:44:42;2.85;;;0.65;;
59766;SDS011;46248;58.364;25.582;2023-09-07T12:48:04;2.17;;;0.75;;
59766;SDS011;46248;58.364;25.582;2023-09-07T12:51:27;1.73;;;0.60;;
59766;SDS011;46248;58.364;25.582;2023-09-07T12:54:49;2.90;;;0.60;;
59766;SDS011;46248;58.364;25.582;2023-09-07T12:58:12;2.10;;;0.80;;
59766;SDS011;46248;58.364;25.582;2023-09-07T13:01:34;2.47;;;0.60;;
59766;SDS011;46248;58.364;25.582;2023-09-07T13:04:55;2.28;;;0.60;;
59766;SDS011;46248;58.364;25.582;2023-09-07T13:08:17;3.55;;;0.88;;
59766;SDS011;46248;58.364;25.582;2023-09-07T13:11:40;1.98;;;0.50;;
59766;SDS011;46248;58.364;25.582;2023-09-07T13:15:04;2.90;;;0.60;;
59766;SDS011;46248;58.364;25.582;2023-09-07T13:18:26;3.78;;;0.63;;
59766;SDS011;46248;58.364;25.582;2023-09-07T13:21:48;0.73;;;0.73;;
59766;SDS011;46248;58.364;25.582;2023-09-07T13:25:10;2.30;;;1.00;;
59766;SDS011;46248;58.364;25.582;2023-09-07T13:28:31;4.25;;;0.85;;
59766;SDS011;46248;58.364;25.582;2023-09-07T13:31:54;2.33;;;0.65;;
59766;SDS011;46248;58.364;25.582;2023-09-07T13:35:18;5.13;;;0.88;;
59766;SDS011;46248;58.364;25.582;2023-09-07T13:38:40;3.75;;;0.90;;
59766;SDS011;46248;58.364;25.582;2023-09-07T13:42:02;3.97;;;1.35;;
59766;SDS011;46248;58.364;25.582;2023-09-07T13:45:24;3.63;;;0.90;;
59766;SDS011;46248;58.364;25.582;2023-09-07T13:48:47;1.83;;;0.60;;
59766;SDS011;46248;58.364;25.582;2023-09-07T13:52:09;3.63;;;0.80;;
59766;SDS011;46248;58.364;25.582;2023-09-07T13:55:30;2.55;;;0.85;;
59766;SDS011;46248;58.364;25.582;2023-09-07T13:58:52;2.30;;;0.55;;
59766;SDS011;46248;58.364;25.582;2023-09-07T14:02:14;0.80;;;0.50;;
59766;SDS011;46248;58.364;25.582;2023-09-07T14:05:37;4.15;;;1.00;;
59766;SDS011;46248;58.364;25.582;2023-09-07T14:08:59;4.20;;;1.52;;
59766;SDS011;46248;58.364;25.582;2023-09-07T14:12:21;2.45;;;1.00;;
59766;SDS011;46248;58.364;25.582;2023-09-07T14:15:43;4.57;;;3.08;;
59766;SDS011;46248;58.364;25.582;2023-09-07T14:19:04;11.32;;;6.07;;
59766;SDS011;46248;58.364;25.582;2023-09-07T14:22:27;2.72;;;1.40;;
59766;SDS011;46248;58.364;25.582;2023-09-07T14:25:49;4.78;;;1.00;;
59766;SDS011;46248;58.364;25.582;2023-09-07T14:29:11;4.30;;;2.20;;
59766;SDS011;46248;58.364;25.582;2023-09-07T14:32:33;10.02;;;6.25;;
59766;SDS011;46248;58.364;25.582;2023-09-07T14:35:55;3.13;;;1.85;;
59766;SDS011;46248;58.364;25.582;2023-09-07T14:39:18;2.45;;;1.25;;
59766;SDS011;46248;58.364;25.582;2023-09-07T14:42:43;3.15;;;0.70;;
59766;SDS011;46248;58.364;25.582;2023-09-07T14:46:05;7.45;;;0.90;;
59766;SDS011;46248;58.364;25.582;2023-09-07T14:49:27;3.30;;;0.70;;
59766;SDS011;46248;58.364;25.582;2023-09-07T14:52:49;3.80;;;1.20;;
59766;SDS011;46248;58.364;25.582;2023-09-07T14:56:12;8.07;;;3.70;;
59766;SDS011;46248;58.364;25.582;2023-09-07T14:59:34;2.97;;;1.63;;
59766;SDS011;46248;58.364;25.582;2023-09-07T15:02:59;2.83;;;1.35;;
59766;SDS011;46248;58.364;25.582;2023-09-07T15:06:21;1.80;;;1.40;;
59766;SDS011;46248;58.364;25.582;2023-09-07T15:09:43;2.50;;;1.38;;
59766;SDS011;46248;58.364;25.582;2023-09-07T15:13:06;4.95;;;2.30;;
59766;SDS011;46248;58.364;25.582;2023-09-07T15:16:28;3.72;;;1.17;;
59766;SDS011;46248;58.364;25.582;2023-09-07T15:19:51;3.33;;;0.70;;
59766;SDS011;46248;58.364;25.582;2023-09-07T15:23:12;2.78;;;1.13;;
59766;SDS011;46248;58.364;25.582;2023-09-07T15:26:40;2.08;;;1.05;;
59766;SDS011;46248;58.364;25.582;2023-09-07T15:30:05;4.78;;;1.50;;
59766;SDS011;46248;58.364;25.582;2023-09-07T15:33:28;7.90;;;2.38;;
59766;SDS011;46248;58.364;25.582;2023-09-07T15:36:50;4.82;;;2.20;;
59766;SDS011;46248;58.364;25.582;2023-09-07T15:40:12;5.97;;;2.28;;
59766;SDS011;46248;58.364;25.582;2023-09-07T15:43:34;5.07;;;1.80;;
59766;SDS011;46248;58.364;25.582;2023-09-07T15:46:57;8.70;;;3.33;;
59766;SDS011;46248;58.364;25.582;2023-09-07T15:50:19;6.95;;;2.53;;
59766;SDS011;46248;58.364;25.582;2023-09-07T15:53:41;2.15;;;0.80;;
59766;SDS011;46248;58.364;25.582;2023-09-07T15:57:03;3.20;;;1.30;;
59766;SDS011;46248;58.364;25.582;2023-09-07T16:00:26;5.82;;;1.70;;
59766;SDS011;46248;58.364;25.582;2023-09-07T16:03:49;8.10;;;2.63;;
59766;SDS011;46248;58.364;25.582;2023-09-07T16:07:11;5.70;;;2.30;;
59766;SDS011;46248;58.364;25.582;2023-09-07T16:10:33;10.48;;;3.40;;
59766;SDS011;46248;58.364;25.582;2023-09-07T16:13:56;8.65;;;3.38;;
59766;SDS011;46248;58.364;25.582;2023-09-07T16:17:18;8.80;;;3.05;;
59766;SDS011;46248;58.364;25.582;2023-09-07T16:20:42;5.75;;;2.65;;
59766;SDS011;46248;58.364;25.582;2023-09-07T16:24:04;6.18;;;2.83;;
59766;SDS011;46248;58.364;25.582;2023-09-07T16:27:26;9.98;;;3.55;;
59766;SDS011;46248;58.364;25.582;2023-09-07T16:30:49;9.60;;;2.90;;
59766;SDS011;46248;58.364;25.582;2023-09-07T16:34:12;6.72;;;2.63;;
59766;SDS011;46248;58.364;25.582;2023-09-07T16:37:35;8.32;;;2.58;;
59766;SDS011;46248;58.364;25.582;2023-09-07T16:41:02;9.88;;;2.10;;
59766;SDS011;46248;58.364;25.582;2023-09-07T16:44:24;6.53;;;1.90;;
59766;SDS011;46248;58.364;25.582;2023-09-07T16:47:46;7.85;;;1.88;;
59766;SDS011;46248;58.364;25.582;2023-09-07T16:51:08;5.72;;;2.30;;
59766;SDS011;46248;58.364;25.582;2023-09-07T16:54:31;6.28;;;2.50;;
59766;SDS011;46248;58.364;25.582;2023-09-07T16:57:55;5.88;;;2.38;;
59766;SDS011;46248;58.364;25.582;2023-09-07T17:01:16;5.95;;;2.83;;
59766;SDS011;46248;58.364;25.582;2023-09-07T17:04:38;2.42;;;1.90;;
59766;SDS011;46248;58.364;25.582;2023-09-07T17:08:00;2.10;;;1.38;;
59766;SDS011;46248;58.364;25.582;2023-09-07T17:11:24;2.75;;;1.40;;
59766;SDS011;46248;58.364;25.582;2023-09-07T17:14:46;3.40;;;1.63;;
59766;SDS011;46248;58.364;25.582;2023-09-07T17:18:08;3.00;;;1.40;;
59766;SDS011;46248;58.364;25.582;2023-09-07T17:21:30;2.90;;;1.48;;
59766;SDS011;46248;58.364;25.582;2023-09-07T17:24:51;1.85;;;1.40;;
59766;SDS011;46248;58.364;25.582;2023-09-07T17:28:14;6.20;;;1.20;;
59766;SDS011;46248;58.364;25.582;2023-09-07T17:31:36;5.82;;;0.85;;
59766;SDS011;46248;58.364;25.582;2023-09-07T17:34:59;1.85;;;1.13;;
59766;SDS011;46248;58.364;25.582;2023-09-07T17:38:21;2.38;;;0.95;;
59766;SDS011;46248;58.364;25.582;2023-09-07T17:41:44;2.58;;;1.00;;
59766;SDS011;46248;58.364;25.582;2023-09-07T17:45:08;2.90;;;1.20;;
59766;SDS011;46248;58.364;25.582;2023-09-07T17:48:30;2.15;;;1.40;;
59766;SDS011;46248;58.364;25.582;2023-09-07T17:51:52;2.10;;;1.05;;
59766;SDS011;46248;58.364;25.582;2023-09-07T17:55:15;2.83;;;1.20;;
59766;SDS011;46248;58.364;25.582;2023-09-07T17:58:37;2.92;;;1.30;;
59766;SDS011;46248;58.364;25.582;2023-09-07T18:02:01;7.13;;;2.17;;
59766;SDS011;46248;58.364;25.582;2023-09-07T18:05:24;6.70;;;2.60;;
59766;SDS011;46248;58.364;25.582;2023-09-07T18:08:46;5.97;;;2.58;;
59766;SDS011;46248;58.364;25.582;2023-09-07T18:12:07;6.15;;;2.90;;
59766;SDS011;46248;58.364;25.582;2023-09-07T18:15:31;5.13;;;2.42;;
59766;SDS011;46248;58.364;25.582;2023-09-07T18:18:54;5.80;;;2.35;;
59766;SDS011;46248;58.364;25.582;2023-09-07T18:22:16;4.00;;;1.80;;
59766;SDS011;46248;58.364;25.582;2023-09-07T18:25:38;5.57;;;1.60;;
59766;SDS011;46248;58.364;25.582;2023-09-07T18:29:01;2.10;;;1.20;;
59766;SDS011;46248;58.364;25.582;2023-09-07T18:32:23;1.85;;;1.17;;
59766;SDS011;46248;58.364;25.582;2023-09-07T18:35:49;4.78;;;1.10;;
59766;SDS011;46248;58.364;25.582;2023-09-07T18:39:20;2.47;;;0.88;;
59766;SDS011;46248;58.364;25.582;2023-09-07T18:42:42;1.85;;;0.70;;
59766;SDS011;46248;58.364;25.582;2023-09-07T18:46:04;3.65;;;0.90;;
59766;SDS011;46248;58.364;25.582;2023-09-07T18:49:28;3.88;;;1.27;;
59766;SDS011;46248;58.364;25.582;2023-09-07T18:52:51;4.25;;;1.02;;
59766;SDS011;46248;58.364;25.582;2023-09-07T18:56:13;1.73;;;0.80;;
59766;SDS011;46248;58.364;25.582;2023-09-07T18:59:35;0.60;;;0.50;;
59766;SDS011;46248;58.364;25.582;2023-09-07T19:02:59;0.80;;;0.60;;
59766;SDS011;46248;58.364;25.582;2023-09-07T19:06:22;3.28;;;0.98;;
59766;SDS011;46248;58.364;25.582;2023-09-07T19:09:46;2.42;;;1.48;;
59766;SDS011;46248;58.364;25.582;2023-09-07T19:13:09;3.20;;;1.17;;
59766;SDS011;46248;58.364;25.582;2023-09-07T19:16:31;3.55;;;1.88;;
59766;SDS011;46248;58.364;25.582;2023-09-07T19:19:53;2.55;;;1.40;;
59766;SDS011;46248;58.364;25.582;2023-09-07T19:23:14;2.80;;;1.33;;
59766;SDS011;46248;58.364;25.582;2023-09-07T19:26:38;4.88;;;1.08;;
59766;SDS011;46248;58.364;25.582;2023-09-07T19:30:01;1.80;;;0.88;;
59766;SDS011;46248;58.364;25.582;2023-09-07T19:33:23;1.45;;;0.90;;
59766;SDS011;46248;58.364;25.582;2023-09-07T19:36:45;2.67;;;0.60;;
59766;SDS011;46248;58.364;25.582;2023-09-07T19:40:07;1.38;;;0.45;;
59766;SDS011;46248;58.364;25.582;2023-09-07T19:43:32;3.70;;;1.73;;
59766;SDS011;46248;58.364;25.582;2023-09-07T19:46:53;2.13;;;0.88;;
59766;SDS011;46248;58.364;25.582;2023-09-07T19:50:16;1.52;;;0.70;;
59766;SDS011;46248;58.364;25.582;2023-09-07T19:53:39;3.45;;;1.08;;
59766;SDS011;46248;58.364;25.582;2023-09-07T19:57:02;1.85;;;0.80;;
59766;SDS011;46248;58.364;25.582;2023-09-07T20:00:25;1.10;;;0.75;;
59766;SDS011;46248;58.364;25.582;2023-09-07T20:03:48;1.42;;;0.90;;
59766;SDS011;46248;58.364;25.582;2023-09-07T20:07:11;1.00;;;1.00;;
59766;SDS011;46248;58.364;25.582;2023-09-07T20:10:33;1.27;;;1.17;;